Flight Track Log - Related Links

Times and Time Zones

All times are in EDT time to prevent confusion due to time zone crossing. See the AFL1700 flight status page for this flight to view local times or setup timezone preferences in your user account.

Time Position Orientation Groundspeed Altitude Reporting Facility
EDT Latitude Longitude Course Direction KTS MPH feet Rate Location/Type
09:55AM 56.1748 37.9608 59° Northeast  Level Estimated
09:56AM 56.2349 38.1450 60° Northeast  Level Estimated
09:57AM 56.2947 38.3297 60° Northeast  Level Estimated
09:58AM 56.3543 38.5150 60° Northeast  Level Estimated
09:59AM 56.4136 38.7009 60° Northeast  Level Estimated
10:00AM 56.4725 38.8873 60° Northeast  Level Estimated
10:01AM 56.5313 39.0744 60° Northeast  Level Estimated
10:02AM 56.5897 39.2620 60° Northeast  Level Estimated
10:03AM 56.6479 39.4502 61° Northeast  Level Estimated
10:04AM 56.7058 39.6390 61° Northeast  Level Estimated
10:05AM 56.7634 39.8283 61° Northeast  Level Estimated
10:06AM 56.8206 40.0182 61° Northeast  Level Estimated
10:07AM 56.8777 40.2088 61° Northeast  Level Estimated
10:08AM 56.9344 40.3999 61° Northeast  Level Estimated
10:09AM 56.9908 40.5915 62° Northeast  Level Estimated
10:10AM 57.0469 40.7838 62° Northeast  Level Estimated
10:11AM 57.1028 40.9766 62° Northeast  Level Estimated
10:12AM 57.1583 41.1701 62° Northeast  Level Estimated
10:13AM 57.2136 41.3641 62° Northeast  Level Estimated
10:14AM 57.2674 41.5547 62° Northeast  Level Estimated
10:15AM 57.3209 41.7459 63° Northeast  Level Estimated
10:16AM 57.3742 41.9376 63° Northeast  Level Estimated
10:17AM 57.4272 42.1300 63° Northeast  Level Estimated
10:18AM 57.4799 42.3228 63° Northeast  Level Estimated
10:19AM 57.5322 42.5162 63° Northeast  Level Estimated
10:20AM 57.5843 42.7102 63° Northeast  Level Estimated
10:21AM 57.6361 42.9048 63° Northeast  Level Estimated
10:22AM 57.6876 43.0998 64° Northeast  Level Estimated
10:23AM 57.7388 43.2955 64° Northeast  Level Estimated
10:24AM 57.7896 43.4917 64° Northeast  Level Estimated
10:25AM 57.8402 43.6884 64° Northeast  Level Estimated
10:26AM 57.8905 43.8857 64° Northeast  Level Estimated
10:27AM 57.9404 44.0836 64° Northeast  Level Estimated
10:28AM 57.9901 44.2820 65° Northeast  Level Estimated
10:29AM 58.0394 44.4809 65° Northeast  Level Estimated
10:30AM 58.0885 44.6804 65° Northeast  Level Estimated
10:31AM 58.1372 44.8804 65° Northeast  Level Estimated
10:32AM 58.1856 45.0810 65° Northeast  Level Estimated
10:33AM 58.2337 45.2822 66° East  Level Estimated
10:34AM 58.2815 45.4838 66° East  Level Estimated
10:35AM 58.3289 45.6861 66° East  Level Estimated
10:36AM 58.3760 45.8888 66° East  Level Estimated
10:37AM 58.4229 46.0921 66° East  Level Estimated
10:38AM 58.4694 46.2960 66° East  Level Estimated
10:39AM 58.5155 46.5003 67° East  Level Estimated
10:40AM 58.5614 46.7053 67° East  Level Estimated
10:41AM 58.6069 46.9107 67° East  Level Estimated
10:42AM 58.6521 47.1167 67° East  Level Estimated
10:43AM 58.6969 47.3232 67° East  Level Estimated
10:44AM 58.7415 47.5303 67° East  Level Estimated
10:45AM 58.7856 47.7378 68° East  Level Estimated
10:46AM 58.8295 47.9459 68° East  Level Estimated
10:47AM 58.8730 48.1546 68° East  Level Estimated
10:48AM 58.9162 48.3637 68° East  Level Estimated
10:49AM 58.9591 48.5734 68° East  Level Estimated
10:50AM 59.0016 48.7836 68° East  Level Estimated
10:51AM 59.0438 48.9943 69° East  Level Estimated
10:52AM 59.0856 49.2055 69° East  Level Estimated
10:53AM 59.1270 49.4173 69° East  Level Estimated
10:54AM 59.1682 49.6295 69° East  Level Estimated
10:55AM 59.2090 49.8423 69° East  Level Estimated
10:56AM 59.2494 50.0556 70° East  Level Estimated
10:57AM 59.2895 50.2693 70° East  Level Estimated
10:58AM 59.3293 50.4836 70° East  Level Estimated
10:59AM 59.3686 50.6984 70° East  Level Estimated
11:00AM 59.4077 50.9137 70° East  Level Estimated
11:01AM 59.4464 51.1294 70° East  Level Estimated
11:02AM 59.4847 51.3457 71° East  Level Estimated
11:03AM 59.5226 51.5624 71° East  Level Estimated
11:04AM 59.5602 51.7797 71° East  Level Estimated
11:05AM 59.5975 51.9974 71° East  Level Estimated
11:06AM 59.6344 52.2156 71° East  Level Estimated
11:07AM 59.6709 52.4342 72° East  Level Estimated
11:08AM 59.7070 52.6534 72° East  Level Estimated
11:09AM 59.7428 52.8730 72° East  Level Estimated
11:10AM 59.7783 53.0931 72° East  Level Estimated
11:11AM 59.8133 53.3137 72° East  Level Estimated
11:12AM 59.8480 53.5347 73° East  Level Estimated
11:13AM 59.8823 53.7561 73° East  Level Estimated
11:14AM 59.9162 53.9781 73° East  Level Estimated
11:15AM 59.9498 54.2005 73° East  Level Estimated
11:16AM 59.9830 54.4233 73° East  Level Estimated
11:17AM 60.0158 54.6466 74° East  Level Estimated
11:18AM 60.0482 54.8703 74° East  Level Estimated
11:19AM 60.0803 55.0944 74° East  Level Estimated
11:20AM 60.1120 55.3190 74° East  Level Estimated
11:21AM 60.1433 55.5440 74° East  Level Estimated
11:22AM 60.1742 55.7695 74° East  Level Estimated
11:23AM 60.2047 55.9953 75° East  Level Estimated
11:24AM 60.2349 56.2216 75° East  Level Estimated
11:25AM 60.2646 56.4483 75° East  Level Estimated
11:26AM 60.2940 56.6754 75° East  Level Estimated
11:27AM 60.3230 56.9030 75° East  Level Estimated
11:28AM 60.3516 57.1309 76° East  Level Estimated
11:29AM 60.3798 57.3592 76° East  Level Estimated
11:30AM 60.4076 57.5879 76° East  Level Estimated
11:31AM 60.4350 57.8170 76° East  Level Estimated
11:32AM 60.4621 58.0465 76° East  Level Estimated
11:33AM 60.4887 58.2763 77° East  Level Estimated
11:34AM 60.5149 58.5065 77° East  Level Estimated
11:35AM 60.5408 58.7371 77° East  Level Estimated
11:36AM 60.5662 58.9681 77° East  Level Estimated
11:37AM 60.5913 59.1995 77° East  Level Estimated
11:38AM 60.6159 59.4311 78° East  Level Estimated
11:39AM 60.6402 59.6632 78° East  Level Estimated
11:40AM 60.6640 59.8956 78° East  Level Estimated
11:41AM 60.6874 60.1283 78° East  Level Estimated
11:42AM 60.7105 60.3614 78° East  Level Estimated
11:43AM 60.7331 60.5947 79° East  Level Estimated
11:44AM 60.7553 60.8285 79° East  Level Estimated
11:45AM 60.7771 61.0625 79° East  Level Estimated
11:46AM 60.7985 61.2969 79° East  Level Estimated
11:47AM 60.8195 61.5315 80° East  Level Estimated
11:48AM 60.8401 61.7665 80° East  Level Estimated
11:49AM 60.8603 62.0018 80° East  Level Estimated
11:50AM 60.8801 62.2373 80° East  Level Estimated
11:51AM 60.8994 62.4732 80° East  Level Estimated
11:52AM 60.9184 62.7093 81° East  Level Estimated
11:53AM 60.9369 62.9457 81° East  Level Estimated
11:54AM 60.9550 63.1824 81° East  Level Estimated
11:55AM 60.9727 63.4194 81° East  Level Estimated
11:56AM 60.9900 63.6566 81° East  Level Estimated
11:57AM 61.0069 63.8941 82° East  Level Estimated
11:58AM 61.0233 64.1318 82° East  Level Estimated
11:59AM 61.0393 64.3698 82° East  Level Estimated
12:00PM 61.0549 64.6080 82° East  Level Estimated
12:01PM 61.0701 64.8464 82° East  Level Estimated
12:02PM 61.0849 65.0851 83° East  Level Estimated
12:03PM 61.0992 65.3239 83° East  Level Estimated
12:04PM 61.1132 65.5630 83° East  Level Estimated
12:05PM 61.1267 65.8023 83° East  Level Estimated
12:06PM 61.1398 66.0418 83° East  Level Estimated
12:07PM 61.1524 66.2815 84° East  Level Estimated
12:08PM 61.1646 66.5214 84° East  Level Estimated
12:09PM 61.1764 66.7615 84° East  Level Estimated
12:10PM 61.1878 67.0017 84° East  Level Estimated
12:11PM 61.1988 67.2421 84° East  Level Estimated
12:12PM 61.2093 67.4827 85° East  Level Estimated
12:13PM 61.2194 67.7234 85° East  Level Estimated
12:14PM 61.2291 67.9643 85° East  Level Estimated
12:15PM 61.2383 68.2054 85° East  Level Estimated
12:16PM 61.2472 68.4465 86° East  Level Estimated
12:17PM 61.2556 68.6878 86° East  Level Estimated
12:18PM 61.2635 68.9293 86° East  Level Estimated
12:19PM 61.2711 69.1708 86° East  Level Estimated
12:20PM 61.2782 69.4125 86° East  Level Estimated
12:21PM 61.2849 69.6543 87° East  Level Estimated
12:22PM 61.2911 69.8961 87° East  Level Estimated
12:23PM 61.2969 70.1381 87° East  Level Estimated
12:24PM 61.3023 70.3801 87° East  Level Estimated
12:25PM 61.3073 70.6223 87° East  Level Estimated
12:26PM 61.3118 70.8644 88° East  Level Estimated
12:27PM 61.3159 71.1067 88° East  Level Estimated
12:28PM 61.3195 71.3490 88° East  Level Estimated
12:29PM 61.3228 71.5914 88° East  Level Estimated
12:30PM 61.3256 71.8338 89° East  Level Estimated
12:31PM 61.3279 72.0763 89° East  Level Estimated
12:32PM 61.3298 72.3188 89° East  Level Estimated
12:33PM 61.3313 72.5613 89° East  Level Estimated
12:34PM 61.3324 72.8039 89° East  Level Estimated
12:35PM 61.3331 73.0464 90° East  Level Estimated
12:36PM 61.3333 73.2890 90° East  Level Estimated
12:37PM 61.3330 73.5316 90° East  Level Estimated
12:38PM 61.3324 73.7741 90° East  Level Estimated
12:39PM 61.3313 74.0167 90° East  Level Estimated
12:40PM 61.3298 74.2592 91° East  Level Estimated
12:41PM 61.3278 74.5017 91° East  Level Estimated
12:42PM 61.3254 74.7442 91° East  Level Estimated
12:43PM 61.3226 74.9866 91° East  Level Estimated
12:44PM 61.3193 75.2290 91° East  Level Estimated
12:45PM 61.3157 75.4713 92° East  Level Estimated
12:46PM 61.3116 75.7135 92° East  Level Estimated
12:47PM 61.3070 75.9557 92° East  Level Estimated
12:48PM 61.3020 76.1979 92° East  Level Estimated
12:49PM 61.2966 76.4399 93° East  Level Estimated
12:50PM 61.2908 76.6819 93° East  Level Estimated
12:51PM 61.2845 76.9237 93° East  Level Estimated
12:52PM 61.2778 77.1655 93° East  Level Estimated
12:53PM 61.2707 77.4071 93° East  Level Estimated
12:54PM 61.2631 77.6487 94° East  Level Estimated
12:55PM 61.2551 77.8901 94° East  Level Estimated
12:56PM 61.2467 78.1314 94° East  Level Estimated
12:57PM 61.2379 78.3726 94° East  Level Estimated
12:58PM 61.2286 78.6136 94° East  Level Estimated
12:59PM 61.2189 78.8545 95° East  Level Estimated
01:00PM 61.2088 79.0952 95° East  Level Estimated
01:01PM 61.1982 79.3358 95° East  Level Estimated
01:02PM 61.1872 79.5762 95° East  Level Estimated
01:03PM 61.1758 79.8164 96° East  Level Estimated
01:04PM 61.1640 80.0565 96° East  Level Estimated
01:05PM 61.1518 80.2963 96° East  Level Estimated
01:06PM 61.1391 80.5360 96° East  Level Estimated
01:07PM 61.1260 80.7755 96° East  Level Estimated
01:08PM 61.1124 81.0148 97° East  Level Estimated
01:09PM 61.0985 81.2539 97° East  Level Estimated
01:10PM 61.0841 81.4928 97° East  Level Estimated
01:11PM 61.0693 81.7314 97° East  Level Estimated
01:12PM 61.0541 81.9698 97° East  Level Estimated
01:13PM 61.0385 82.2080 98° East  Level Estimated
01:14PM 61.0224 82.4460 98° East  Level Estimated
01:15PM 61.0060 82.6837 98° East  Level Estimated
01:16PM 60.9891 82.9211 98° East  Level Estimated
01:17PM 60.9718 83.1583 98° East  Level Estimated
01:18PM 60.9541 83.3953 99° East  Level Estimated
01:19PM 60.9359 83.6320 99° East  Level Estimated
01:20PM 60.9174 83.8683 99° East  Level Estimated
01:21PM 60.8984 84.1045 99° East  Level Estimated
01:22PM 60.8791 84.3403 99° East  Level Estimated
01:23PM 60.8593 84.5759 100° East  Level Estimated
01:24PM 60.8391 84.8111 100° East  Level Estimated
01:25PM 60.8185 85.0461 100° East  Level Estimated
01:26PM 60.7974 85.2807 100° East  Level Estimated
01:27PM 60.7760 85.5151 101° East  Level Estimated
01:28PM 60.7542 85.7491 101° East  Level Estimated
01:29PM 60.7319 85.9828 101° East  Level Estimated
01:30PM 60.7093 86.2162 101° East  Level Estimated
01:31PM 60.6862 86.4492 101° East  Level Estimated
01:32PM 60.6628 86.6819 102° East  Level Estimated
01:33PM 60.6389 86.9143 102° East  Level Estimated
01:34PM 60.6146 87.1463 102° East  Level Estimated
01:35PM 60.5900 87.3780 102° East  Level Estimated
01:36PM 60.5649 87.6093 102° East  Level Estimated
01:37PM 60.5395 87.8402 103° East  Level Estimated
01:38PM 60.5136 88.0708 103° East  Level Estimated
01:39PM 60.4873 88.3010 103° East  Level Estimated
01:40PM 60.4607 88.5309 103° East  Level Estimated
01:41PM 60.4336 88.7603 103° East  Level Estimated
01:42PM 60.4062 88.9894 104° East  Level Estimated
01:43PM 60.3783 89.2181 104° East  Level Estimated
01:44PM 60.3501 89.4464 104° East  Level Estimated
01:45PM 60.3215 89.6743 104° East  Level Estimated
01:46PM 60.2925 89.9018 104° East  Level Estimated
01:47PM 60.2631 90.1289 105° East  Level Estimated
01:48PM 60.2333 90.3555 105° East  Level Estimated
01:49PM 60.2032 90.5818 105° East  Level Estimated
01:50PM 60.1726 90.8076 105° East  Level Estimated
01:51PM 60.1417 91.0331 105° East  Level Estimated
01:52PM 60.1103 91.2580 106° East  Level Estimated
01:53PM 60.0786 91.4826 106° East  Level Estimated
01:54PM 60.0466 91.7067 106° East  Level Estimated
01:55PM 60.0141 91.9304 106° East  Level Estimated
01:56PM 59.9813 92.1537 106° East  Level Estimated
01:57PM 59.9481 92.3765 106° East  Level Estimated
01:58PM 59.9145 92.5989 107° East  Level Estimated
01:59PM 59.8805 92.8208 107° East  Level Estimated
02:00PM 59.8462 93.0422 107° East  Level Estimated
02:01PM 59.8115 93.2632 107° East  Level Estimated
02:02PM 59.7764 93.4837 107° East  Level Estimated
02:03PM 59.7410 93.7038 108° East  Level Estimated
02:04PM 59.7052 93.9234 108° East  Level Estimated
02:05PM 59.6690 94.1425 108° East  Level Estimated
02:06PM 59.6325 94.3612 108° East  Level Estimated
02:07PM 59.5956 94.5794 108° East  Level Estimated
02:08PM 59.5583 94.7970 109° East  Level Estimated
02:09PM 59.5207 95.0143 109° East  Level Estimated
02:10PM 59.4827 95.2310 109° East  Level Estimated
02:11PM 59.4443 95.4472 109° East  Level Estimated
02:12PM 59.4056 95.6629 109° East  Level Estimated
02:13PM 59.3666 95.8782 110° East  Level Estimated
02:14PM 59.3272 96.0929 110° East  Level Estimated
02:15PM 59.2874 96.3072 110° East  Level Estimated
02:16PM 59.2473 96.5209 110° East  Level Estimated
02:17PM 59.2069 96.7342 110° East  Level Estimated
02:18PM 59.1661 96.9469 110° East  Level Estimated
02:19PM 59.1249 97.1591 111° Southeast  Level Estimated
02:20PM 59.0834 97.3708 111° Southeast  Level Estimated
02:21PM 59.0416 97.5820 111° Southeast  Level Estimated
02:22PM 58.9994 97.7927 111° Southeast  Level Estimated
02:23PM 58.9568 98.0029 111° Southeast  Level Estimated
02:24PM 58.9140 98.2125 112° Southeast  Level Estimated
02:25PM 58.8708 98.4217 112° Southeast  Level Estimated
02:26PM 58.8272 98.6303 112° Southeast  Level Estimated
02:27PM 58.7834 98.8384 112° Southeast  Level Estimated
02:28PM 58.7392 99.0459 112° Southeast  Level Estimated
02:29PM 58.6946 99.2529 112° Southeast  Level Estimated
02:30PM 58.6497 99.4594 113° Southeast  Level Estimated
02:31PM 58.6045 99.6654 113° Southeast  Level Estimated
02:32PM 58.5590 99.8708 113° Southeast  Level Estimated
02:33PM 58.5131 100.0757 113° Southeast  Level Estimated
02:34PM 58.4669 100.2800 113° Southeast  Level Estimated
02:35PM 58.4204 100.4838 113° Southeast  Level Estimated
02:36PM 58.3736 100.6871 114° Southeast  Level Estimated
02:37PM 58.3265 100.8899 114° Southeast  Level Estimated
02:38PM 58.2790 101.0920 114° Southeast  Level Estimated
02:39PM 58.2312 101.2937 114° Southeast  Level Estimated
02:40PM 58.1831 101.4948 114° Southeast  Level Estimated
02:41PM 58.1347 101.6954 115° Southeast  Level Estimated
02:42PM 58.0859 101.8954 115° Southeast  Level Estimated
02:43PM 58.0369 102.0948 115° Southeast  Level Estimated
02:44PM 57.9875 102.2938 115° Southeast  Level Estimated
02:45PM 57.9378 102.4921 115° Southeast  Level Estimated
02:46PM 57.8879 102.6899 115° Southeast  Level Estimated
02:47PM 57.8376 102.8872 116° Southeast  Level Estimated
02:48PM 57.7870 103.0839 116° Southeast  Level Estimated
02:49PM 57.7361 103.2801 116° Southeast  Level Estimated
02:50PM 57.6849 103.4757 116° Southeast  Level Estimated
02:51PM 57.6334 103.6708 116° Southeast  Level Estimated
02:52PM 57.5816 103.8653 116° Southeast  Level Estimated
02:53PM 57.5295 104.0592 117° Southeast  Level Estimated
02:54PM 57.4771 104.2526 117° Southeast  Level Estimated
02:55PM 57.4244 104.4454 117° Southeast  Level Estimated
02:56PM 57.3714 104.6377 117° Southeast  Level Estimated
02:57PM 57.3182 104.8295 117° Southeast  Level Estimated
02:58PM 57.2646 105.0206 117° Southeast  Level Estimated
02:59PM 57.2108 105.2112 117° Southeast  Level Estimated
03:00PM 57.1566 105.4013 118° Southeast  Level Estimated
03:01PM 57.1022 105.5908 118° Southeast  Level Estimated
03:02PM 57.0475 105.7797 118° Southeast  Level Estimated
03:03PM 56.9925 105.9681 118° Southeast  Level Estimated
03:04PM 56.9372 106.1560 118° Southeast  Level Estimated
03:05PM 56.8816 106.3432 118° Southeast  Level Estimated
03:06PM 56.8258 106.5299 119° Southeast  Level Estimated
03:07PM 56.7697 106.7161 119° Southeast  Level Estimated
03:08PM 56.7133 106.9017 119° Southeast  Level Estimated
03:09PM 56.6566 107.0867 119° Southeast  Level Estimated
03:10PM 56.5997 107.2712 119° Southeast  Level Estimated
03:11PM 56.5425 107.4551 119° Southeast  Level Estimated
03:12PM 56.4850 107.6385 120° Southeast  Level Estimated
03:13PM 56.4272 107.8213 120° Southeast  Level Estimated
03:14PM 56.3692 108.0036 120° Southeast  Level Estimated
03:15PM 56.3109 108.1853 120° Southeast  Level Estimated
03:16PM 56.2524 108.3664 120° Southeast  Level Estimated
03:17PM 56.1936 108.5470 120° Southeast  Level Estimated
03:18PM 56.1345 108.7271 120° Southeast  Level Estimated
03:19PM 56.0752 108.9066 121° Southeast  Level Estimated
03:20PM 56.0156 109.0855 121° Southeast  Level Estimated
03:21PM 55.9557 109.2639 121° Southeast  Level Estimated
03:22PM 55.8956 109.4417 121° Southeast  Level Estimated
03:23PM 55.8352 109.6190 121° Southeast  Level Estimated
03:24PM 55.7746 109.7957 121° Southeast  Level Estimated
03:25PM 55.7137 109.9719 121° Southeast  Level Estimated
03:26PM 55.6526 110.1475 122° Southeast  Level Estimated
03:27PM 55.5912 110.3226 122° Southeast  Level Estimated
03:28PM 55.5296 110.4971 122° Southeast  Level Estimated
03:29PM 55.4677 110.6711 122° Southeast  Level Estimated
03:30PM 55.4056 110.8446 122° Southeast  Level Estimated
03:31PM 55.3432 111.0174 122° Southeast  Level Estimated
03:32PM 55.2806 111.1898 122° Southeast  Level Estimated
03:33PM 55.2178 111.3616 123° Southeast  Level Estimated
03:34PM 55.1547 111.5329 123° Southeast  Level Estimated
03:35PM 55.0914 111.7036 123° Southeast  Level Estimated
03:36PM 55.0278 111.8737 123° Southeast  Level Estimated
03:37PM 54.9640 112.0434 123° Southeast  Level Estimated
03:38PM 54.9000 112.2125 123° Southeast  Level Estimated
03:39PM 54.8357 112.3811 123° Southeast  Level Estimated
03:40PM 54.7712 112.5491 124° Southeast  Level Estimated
03:41PM 54.7064 112.7166 124° Southeast  Level Estimated
03:42PM 54.6415 112.8835 124° Southeast  Level Estimated
03:43PM 54.5763 113.0499 124° Southeast  Level Estimated
03:44PM 54.5108 113.2158 124° Southeast  Level Estimated
03:45PM 54.4452 113.3812 124° Southeast  Level Estimated
03:46PM 54.3793 113.5460 124° Southeast  Level Estimated
03:47PM 54.3132 113.7103 125° Southeast  Level Estimated
03:48PM 54.2469 113.8741 125° Southeast  Level Estimated
03:49PM 54.1804 114.0373 125° Southeast  Level Estimated
03:50PM 54.1136 114.2000 125° Southeast  Level Estimated
03:51PM 54.0466 114.3622 125° Southeast  Level Estimated
03:52PM 53.9794 114.5239 125° Southeast  Level Estimated
03:53PM 53.9120 114.6851 125° Southeast  Level Estimated
03:54PM 53.8444 114.8457 125° Southeast  Level Estimated
03:55PM 53.7765 115.0058 126° Southeast  Level Estimated
03:56PM 53.7085 115.1654 126° Southeast  Level Estimated
03:57PM 53.6402 115.3245 126° Southeast  Level Estimated
03:58PM 53.5717 115.4830 126° Southeast  Level Estimated
03:59PM 53.5031 115.6411 126° Southeast  Level Estimated
04:00PM 53.4342 115.7986 126° Southeast  Level Estimated
04:01PM 53.3651 115.9556 126° Southeast  Level Estimated
04:02PM 53.2957 116.1121 126° Southeast  Level Estimated
04:03PM 53.2262 116.2682 127° Southeast  Level Estimated
04:04PM 53.1565 116.4237 127° Southeast  Level Estimated
04:05PM 53.0866 116.5786 127° Southeast  Level Estimated
04:06PM 53.0165 116.7331 127° Southeast  Level Estimated
04:07PM 52.9462 116.8871 127° Southeast  Level Estimated
04:08PM 52.8757 117.0406 127° Southeast  Level Estimated
04:09PM 52.8050 117.1936 127° Southeast  Level Estimated
04:10PM 52.7340 117.3461 127° Southeast  Level Estimated
04:11PM 52.6629 117.4981 128° Southeast  Level Estimated
04:12PM 52.5916 117.6496 128° Southeast  Level Estimated
04:13PM 52.5201 117.8006 128° Southeast  Level Estimated
04:14PM 52.4485 117.9511 128° Southeast  Level Estimated
04:15PM 52.3766 118.1012 128° Southeast  Level Estimated
04:16PM 52.3045 118.2507 128° Southeast  Level Estimated
04:17PM 52.2323 118.3998 128° Southeast  Level Estimated
04:18PM 52.1599 118.5483 128° Southeast  Level Estimated
04:19PM 52.0872 118.6964 129° Southeast  Level Estimated
04:20PM 52.0144 118.8440 129° Southeast  Level Estimated
04:21PM 51.9414 118.9911 129° Southeast  Level Estimated
04:22PM 51.8683 119.1378 129° Southeast  Level Estimated
04:23PM 51.7949 119.2840 129° Southeast  Level Estimated
04:24PM 51.7214 119.4296 129° Southeast  Level Estimated
04:25PM 51.6477 119.5749 129° Southeast  Level Estimated
04:26PM 51.5738 119.7196 129° Southeast  Level Estimated
04:27PM 51.4997 119.8639 129° Southeast  Level Estimated
04:28PM 51.4254 120.0077 130° Southeast  Level Estimated
04:29PM 51.3510 120.1510 130° Southeast  Level Estimated
04:30PM 51.2764 120.2939 130° Southeast  Level Estimated
04:31PM 51.2016 120.4363 130° Southeast  Level Estimated
04:32PM 51.1267 120.5783 130° Southeast  Level Estimated
04:33PM 51.0516 120.7198 130° Southeast  Level Estimated
04:34PM 50.9763 120.8608 130° Southeast  Level Estimated
04:35PM 50.9008 121.0014 130° Southeast  Level Estimated
04:36PM 50.8252 121.1415 130° Southeast  Level Estimated
04:37PM 50.7494 121.2812 131° Southeast  Level Estimated
04:38PM 50.6735 121.4204 131° Southeast  Level Estimated
04:39PM 50.5974 121.5591 131° Southeast  Level Estimated
04:40PM 50.5211 121.6974 131° Southeast  Level Estimated
04:41PM 50.4446 121.8353 131° Southeast  Level Estimated
04:42PM 50.3680 121.9727 131° Southeast  Level Estimated
04:43PM 50.2912 122.1097 131° Southeast  Level Estimated
04:44PM 50.2143 122.2462 131° Southeast  Level Estimated
04:45PM 50.1372 122.3823 131° Southeast  Level Estimated
04:46PM 50.0600 122.5180 132° Southeast  Level Estimated
04:47PM 49.9826 122.6532 132° Southeast  Level Estimated
04:48PM 49.9050 122.7880 132° Southeast  Level Estimated
04:49PM 49.8273 122.9224 132° Southeast  Level Estimated
04:50PM 49.7494 123.0563 132° Southeast  Level Estimated
04:51PM 49.6714 123.1898 132° Southeast  Level Estimated
04:52PM 49.5932 123.3228 132° Southeast  Level Estimated
04:53PM 49.5149 123.4555 132° Southeast  Level Estimated
04:54PM 49.4364 123.5877 132° Southeast  Level Estimated
04:55PM 49.3577 123.7195 132° Southeast  Level Estimated
04:56PM 49.2789 123.8509 133° Southeast  Level Estimated
04:57PM 49.2000 123.9818 133° Southeast  Level Estimated
04:58PM 49.1209 124.1123 133° Southeast  Level Estimated
04:59PM 49.0417 124.2424 133° Southeast  Level Estimated
05:00PM 48.9623 124.3721 133° Southeast  Level Estimated
05:01PM 48.8828 124.5014 133° Southeast  Level Estimated
05:02PM 48.8032 124.6303 133° Southeast  Level Estimated
05:03PM 48.7234 124.7588 133° Southeast  Level Estimated
05:04PM 48.6434 124.8868 133° Southeast  Level Estimated
05:05PM 48.5633 125.0145 133° Southeast  Level Estimated
05:06PM 48.4831 125.1418 134° Southeast  Level Estimated
05:07PM 48.4027 125.2686 134° Southeast  Level Estimated
05:08PM 48.3222 125.3951 134° Southeast  Level Estimated
05:09PM 48.2416 125.5211 134° Southeast  Level Estimated
05:10PM 48.1608 125.6468 134° Southeast  Level Estimated
05:11PM 48.0798 125.7720 134° Southeast  Level Estimated
05:12PM 47.9988 125.8969 134° Southeast  Level Estimated
05:13PM 47.9176 126.0213 134° Southeast  Level Estimated
05:14PM 47.8363 126.1454 134° Southeast  Level Estimated
05:15PM 47.7548 126.2691 134° Southeast  Level Estimated
05:16PM 47.6732 126.3924 134° Southeast  Level Estimated
05:17PM 47.5915 126.5154 135° Southeast  Level Estimated
05:18PM 47.5096 126.6379 135° Southeast  Level Estimated
05:19PM 47.4277 126.7600 135° Southeast  Level Estimated
05:20PM 47.3456 126.8818 135° Southeast  Level Estimated
05:21PM 47.2633 127.0032 135° Southeast  Level Estimated
05:22PM 47.1809 127.1242 135° Southeast  Level Estimated
05:23PM 47.0984 127.2449 135° Southeast  Level Estimated
05:24PM 47.0158 127.3652 135° Southeast  Level Estimated
05:25PM 46.9331 127.4850 135° Southeast  Level Estimated
05:26PM 46.8502 127.6046 135° Southeast  Level Estimated
05:27PM 46.7672 127.7237 135° Southeast  Level Estimated
05:28PM 46.6841 127.8425 136° Southeast  Level Estimated
05:29PM 46.6008 127.9610 136° Southeast  Level Estimated
05:30PM 46.5175 128.0790 136° Southeast  Level Estimated
05:31PM 46.4340 128.1967 136° Southeast  Level Estimated
05:32PM 46.3504 128.3141 136° Southeast  Level Estimated
05:33PM 46.2666 128.4310 136° Southeast  Level Estimated
05:34PM 46.1828 128.5477 136° Southeast  Level Estimated
05:35PM 46.0988 128.6639 136° Southeast  Level Estimated
05:36PM 46.0148 128.7799 136° Southeast  Level Estimated
05:37PM 45.9305 128.8954 136° Southeast  Level Estimated
05:38PM 45.8462 129.0106 136° Southeast  Level Estimated
05:39PM 45.7618 129.1255 136° Southeast  Level Estimated
05:40PM 45.6773 129.2400 137° Southeast  Level Estimated
05:41PM 45.5926 129.3542 137° Southeast  Level Estimated
05:42PM 45.5078 129.4680 137° Southeast  Level Estimated
05:43PM 45.4230 129.5815 137° Southeast  Level Estimated
05:44PM 45.3380 129.6946 137° Southeast  Level Estimated
05:45PM 45.2528 129.8074 137° Southeast  Level Estimated
05:46PM 45.1676 129.9199 137° Southeast  Level Estimated
05:47PM 45.0823 130.0320 137° Southeast  Level Estimated
05:48PM 44.9969 130.1438 137° Southeast  Level Estimated
05:49PM 44.9113 130.2553 137° Southeast  Level Estimated
05:50PM 44.8257 130.3664 137° Southeast  Level Estimated
05:51PM 44.7399 130.4772 137° Southeast  Level Estimated
05:52PM 44.6540 130.5877 138° Southeast  Level Estimated
05:53PM 44.5681 130.6979 138° Southeast  Level Estimated
05:54PM 44.4820 130.8077 138° Southeast  Level Estimated
05:55PM 44.3958 130.9172 138° Southeast  Level Estimated
05:56PM 44.3095 131.0264 138° Southeast  Level Estimated
05:57PM 44.2231 131.1352 138° Southeast  Level Estimated
05:58PM 44.1366 131.2437 138° Southeast  Level Estimated
05:59PM 44.0500 131.3520 138° Southeast  Level Estimated
06:00PM 43.9633 131.4599 138° Southeast  Level Estimated
06:01PM 43.8765 131.5674 138° Southeast  Level Estimated
06:02PM 43.7896 131.6747 138° Southeast  Level Estimated
06:03PM 43.7026 131.7817 138° Southeast  Level Estimated
06:04PM 43.6155 131.8883 138° Southeast  Level Estimated

Login

Don't have an account? Register now (free) for customized features, flight alerts, and more!